createdAt,value
2018-12-26T00:01:52.435Z,10.47
2018-12-26T00:04:21.329Z,8.04
2018-12-26T00:06:49.923Z,10.50
2018-12-26T00:09:18.579Z,9.57
2018-12-26T00:11:46.978Z,9.58
2018-12-26T00:14:16.339Z,20.08
2018-12-26T00:16:44.883Z,9.88
2018-12-26T00:19:13.377Z,9.63
2018-12-26T00:24:17.394Z,8.08
2018-12-26T00:26:46.256Z,10.87
2018-12-26T00:29:14.701Z,13.45
2018-12-26T00:31:43.123Z,13.70
2018-12-26T00:34:12.293Z,8.05
2018-12-26T00:36:40.830Z,10.95
2018-12-26T00:39:09.356Z,10.20
2018-12-26T00:41:38.107Z,10.20
2018-12-26T00:44:07.256Z,8.83
2018-12-26T00:46:35.730Z,9.78
2018-12-26T00:49:04.221Z,10.70
2018-12-26T00:51:40.731Z,10.43
2018-12-26T00:54:09.147Z,11.37
2018-12-26T00:56:37.562Z,12.80
2018-12-26T00:59:05.983Z,15.90
2018-12-26T01:01:34.436Z,12.13
2018-12-26T01:04:03.272Z,11.60
2018-12-26T01:06:35.691Z,10.93
2018-12-26T01:09:06.143Z,11.00
2018-12-26T01:11:34.643Z,9.17
2018-12-26T01:14:03.047Z,9.50
2018-12-26T01:16:31.472Z,14.00
2018-12-26T01:18:59.977Z,12.98
2018-12-26T01:21:28.389Z,8.03
2018-12-26T01:23:56.853Z,9.83
2018-12-26T01:26:25.275Z,7.60
2018-12-26T01:28:53.719Z,8.90
2018-12-26T01:31:22.129Z,10.40
2018-12-26T01:33:50.804Z,10.18
2018-12-26T01:36:19.211Z,7.80
2018-12-26T01:38:48.560Z,12.95
2018-12-26T01:41:16.971Z,10.40
2018-12-26T01:43:45.410Z,11.37
2018-12-26T01:46:13.871Z,10.20
2018-12-26T01:48:42.290Z,9.73
2018-12-26T01:51:10.698Z,12.00
2018-12-26T01:53:42.758Z,11.38
2018-12-26T01:56:11.165Z,11.30
2018-12-26T01:58:39.611Z,10.50
2018-12-26T02:01:08.024Z,11.03
2018-12-26T02:03:36.453Z,10.80
2018-12-26T02:06:05.122Z,9.87
2018-12-26T02:08:37.107Z,10.88
2018-12-26T02:11:05.541Z,10.13
2018-12-26T02:13:34.150Z,11.87
2018-12-26T02:16:02.587Z,10.30
2018-12-26T02:18:31.000Z,10.43
2018-12-26T02:20:59.411Z,11.23
2018-12-26T02:23:32.398Z,11.13
2018-12-26T02:26:00.817Z,11.40
2018-12-26T02:28:29.734Z,9.53
2018-12-26T02:30:58.253Z,9.90
2018-12-26T02:33:26.650Z,11.07
2018-12-26T02:35:55.372Z,12.73
2018-12-26T02:38:24.533Z,11.63
2018-12-26T02:40:53.074Z,15.10
2018-12-26T02:43:21.513Z,13.57
2018-12-26T02:45:49.951Z,13.67
2018-12-26T02:48:18.370Z,13.72
2018-12-26T02:50:46.825Z,14.30
2018-12-26T02:53:15.239Z,12.20
2018-12-26T02:55:44.592Z,11.83
2018-12-26T02:58:13.032Z,14.17
2018-12-26T03:00:41.458Z,14.93
2018-12-26T03:03:09.917Z,10.35
2018-12-26T03:05:39.248Z,12.73
2018-12-26T03:08:07.687Z,11.17
2018-12-26T03:10:36.113Z,10.60
2018-12-26T03:13:04.661Z,13.83
2018-12-26T03:15:33.076Z,13.93
2018-12-26T03:18:01.539Z,10.95
2018-12-26T03:20:29.974Z,10.53
2018-12-26T03:22:59.011Z,12.13
2018-12-26T03:25:31.397Z,9.73
2018-12-26T03:27:59.808Z,11.50
2018-12-26T03:30:28.264Z,10.60
2018-12-26T03:32:56.834Z,10.57
2018-12-26T03:35:25.322Z,11.53
2018-12-26T03:37:54.390Z,10.40
2018-12-26T03:40:22.803Z,11.53
2018-12-26T03:42:51.629Z,12.07
2018-12-26T03:45:20.878Z,10.63
2018-12-26T03:47:49.829Z,11.43
2018-12-26T03:50:18.256Z,13.30
2018-12-26T03:52:46.680Z,10.70
2018-12-26T03:55:19.149Z,11.07
2018-12-26T03:57:47.875Z,11.22
2018-12-26T04:00:16.560Z,11.53
2018-12-26T04:02:44.975Z,12.17
2018-12-26T04:05:13.400Z,11.87
2018-12-26T04:07:41.839Z,12.27
2018-12-26T04:10:14.388Z,12.20
2018-12-26T04:12:42.973Z,13.75
2018-12-26T04:15:11.389Z,11.63
2018-12-26T04:17:40.442Z,13.85
2018-12-26T04:20:08.964Z,11.70
2018-12-26T04:22:37.415Z,15.23
2018-12-26T04:25:08.767Z,11.93
2018-12-26T04:27:37.299Z,10.87
2018-12-26T04:30:08.592Z,15.37
2018-12-26T04:32:37.034Z,15.43
2018-12-26T04:35:05.822Z,12.65
2018-12-26T04:37:34.271Z,20.37
2018-12-26T04:40:05.891Z,14.10
2018-12-26T04:42:34.306Z,13.20
2018-12-26T04:45:02.735Z,21.27
2018-12-26T04:47:31.335Z,13.25
2018-12-26T04:49:59.768Z,16.13
2018-12-26T04:52:28.226Z,15.53
2018-12-26T04:54:56.686Z,16.32
2018-12-26T04:57:25.267Z,14.33
2018-12-26T04:59:54.015Z,18.62
2018-12-26T05:02:22.455Z,15.23
2018-12-26T05:04:50.870Z,16.50
2018-12-26T05:07:19.331Z,14.10
2018-12-26T05:09:47.830Z,18.07
2018-12-26T05:12:16.311Z,11.73
2018-12-26T05:14:45.685Z,18.63
2018-12-26T05:17:14.101Z,14.13
2018-12-26T05:19:42.547Z,19.53
2018-12-26T05:22:10.965Z,16.53
2018-12-26T05:24:39.413Z,14.87
2018-12-26T05:27:07.859Z,17.43
2018-12-26T05:29:36.296Z,16.65
2018-12-26T05:32:05.663Z,16.62
2018-12-26T05:34:34.103Z,14.63
2018-12-26T05:37:02.530Z,16.37
2018-12-26T05:39:30.987Z,14.47
2018-12-26T05:41:59.400Z,15.13
2018-12-26T05:44:28.038Z,14.80
2018-12-26T05:46:56.460Z,16.80
2018-12-26T05:49:25.309Z,15.32
2018-12-26T05:51:53.757Z,19.35
2018-12-26T05:54:22.211Z,19.17
2018-12-26T05:56:53.623Z,14.57
2018-12-26T05:59:22.049Z,14.23
2018-12-26T06:01:50.798Z,15.28
2018-12-26T06:04:19.450Z,17.87
2018-12-26T06:06:47.901Z,17.90
2018-12-26T06:09:16.494Z,17.35
2018-12-26T06:11:48.875Z,16.30
2018-12-26T06:14:17.820Z,20.87
2018-12-26T06:16:46.384Z,16.80
2018-12-26T06:19:14.831Z,23.27
2018-12-26T06:21:50.666Z,19.37
2018-12-26T06:24:19.064Z,16.60
2018-12-26T06:26:52.187Z,15.70
2018-12-26T06:29:20.615Z,16.10
2018-12-26T06:31:49.232Z,17.87
2018-12-26T06:34:17.847Z,16.42
2018-12-26T06:36:46.315Z,17.95
2018-12-26T06:39:14.765Z,18.03
2018-12-26T06:41:43.210Z,18.80
2018-12-26T06:44:11.646Z,14.50
2018-12-26T06:46:40.320Z,14.70
2018-12-26T06:49:08.772Z,19.00
2018-12-26T06:51:37.907Z,18.20
2018-12-26T06:54:06.322Z,18.00
2018-12-26T06:56:34.766Z,19.20
2018-12-26T06:59:03.194Z,15.73
2018-12-26T07:01:31.613Z,19.30
2018-12-26T07:04:00.068Z,16.10
2018-12-26T07:06:28.540Z,17.80
2018-12-26T07:08:57.503Z,19.75
2018-12-26T07:11:25.972Z,17.55
2018-12-26T07:13:54.396Z,19.33
2018-12-26T07:16:22.841Z,18.97
2018-12-26T07:18:51.263Z,18.40
2018-12-26T07:21:19.688Z,18.27
2018-12-26T07:23:48.137Z,16.87
2018-12-26T07:26:16.587Z,17.20
2018-12-26T07:28:48.010Z,23.20
2018-12-26T07:31:16.448Z,19.23
2018-12-26T07:33:44.871Z,17.17
2018-12-26T07:36:13.351Z,18.87
2018-12-26T07:38:42.604Z,21.15
2018-12-26T07:41:11.018Z,18.50
2018-12-26T07:43:43.186Z,20.90
2018-12-26T07:46:11.675Z,19.70
2018-12-26T07:48:40.092Z,20.70
2018-12-26T07:51:08.580Z,23.77
2018-12-26T07:53:37.960Z,20.55
2018-12-26T07:56:06.385Z,16.60
2018-12-26T07:58:34.870Z,18.63
2018-12-26T08:01:04.113Z,19.77
2018-12-26T08:03:32.983Z,23.10
2018-12-26T08:06:01.443Z,20.57
2018-12-26T08:08:29.906Z,26.03
2018-12-26T08:10:58.378Z,26.33
2018-12-26T08:13:26.818Z,21.23
2018-12-26T08:15:55.344Z,22.00
2018-12-26T08:18:23.726Z,22.00
2018-12-26T08:20:52.562Z,24.27
2018-12-26T08:23:21.027Z,31.27
2018-12-26T08:25:49.451Z,20.07
2018-12-26T08:28:26.359Z,23.70
2018-12-26T08:30:48.052Z,38.60
2018-12-26T08:33:16.534Z,38.23
2018-12-26T08:35:44.996Z,37.35
2018-12-26T08:38:13.425Z,31.48
2018-12-26T08:40:42.448Z,24.60
2018-12-26T08:43:10.894Z,24.40
2018-12-26T08:45:39.315Z,25.30
2018-12-26T08:48:07.771Z,24.23
2018-12-26T08:50:36.193Z,21.50
2018-12-26T08:53:04.668Z,22.63
2018-12-26T08:55:33.128Z,22.80
2018-12-26T08:58:02.470Z,34.00
2018-12-26T09:00:31.055Z,25.50
2018-12-26T09:02:59.519Z,24.13
2018-12-26T09:05:27.948Z,28.45
2018-12-26T09:07:56.362Z,23.97
2018-12-26T09:10:24.798Z,22.67
2018-12-26T09:12:53.222Z,22.13
2018-12-26T09:15:25.596Z,22.50
2018-12-26T09:17:54.048Z,25.57
2018-12-26T09:20:22.650Z,24.57
2018-12-26T09:22:51.122Z,21.65
2018-12-26T09:25:19.594Z,24.47
2018-12-26T09:27:48.215Z,20.53
2018-12-26T09:30:17.801Z,21.50
2018-12-26T09:32:46.439Z,23.57
2018-12-26T09:35:14.857Z,16.48
2018-12-26T09:37:43.287Z,18.83
2018-12-26T09:40:12.455Z,17.27
2018-12-26T09:42:41.001Z,19.25
2018-12-26T09:45:12.703Z,17.87
2018-12-26T09:47:41.151Z,16.03
2018-12-26T09:50:09.587Z,15.78
2018-12-26T09:52:38.125Z,14.98
2018-12-26T09:55:06.542Z,18.10
2018-12-26T09:57:35.087Z,18.75
2018-12-26T10:00:04.738Z,18.77
2018-12-26T10:02:33.203Z,17.67
2018-12-26T10:05:01.711Z,16.30
2018-12-26T10:07:30.115Z,17.47
2018-12-26T10:09:58.563Z,14.40
2018-12-26T10:12:27.054Z,11.48
2018-12-26T10:14:55.795Z,15.73
2018-12-26T10:17:24.279Z,8.07
2018-12-26T10:19:52.703Z,10.13
2018-12-26T10:22:21.175Z,12.33
2018-12-26T10:24:49.627Z,9.40
2018-12-26T10:27:18.048Z,10.30
2018-12-26T10:29:46.737Z,12.60
2018-12-26T10:32:15.164Z,16.10
2018-12-26T10:34:43.639Z,13.37
2018-12-26T10:37:12.368Z,13.90
2018-12-26T10:39:40.792Z,12.03
2018-12-26T10:42:09.371Z,11.13
2018-12-26T10:44:37.975Z,9.13
2018-12-26T10:47:06.389Z,10.53
2018-12-26T10:49:34.848Z,9.70
2018-12-26T10:52:03.283Z,9.93
2018-12-26T10:54:31.792Z,11.78
2018-12-26T10:57:00.363Z,8.80
2018-12-26T10:59:28.819Z,11.73
2018-12-26T11:01:57.238Z,11.60
2018-12-26T11:04:26.585Z,16.96
2018-12-26T11:06:55.183Z,13.93
2018-12-26T11:09:23.653Z,11.10
2018-12-26T11:11:52.164Z,11.03
2018-12-26T11:14:20.629Z,11.60
2018-12-26T11:16:51.802Z,10.40
2018-12-26T11:19:20.254Z,10.60
2018-12-26T11:21:48.667Z,9.63
2018-12-26T11:24:17.111Z,8.30
2018-12-26T11:26:45.551Z,12.07
2018-12-26T11:29:18.498Z,21.40
2018-12-26T11:31:47.198Z,9.33
2018-12-26T11:34:15.658Z,10.83
2018-12-26T11:36:44.058Z,12.10
2018-12-26T11:39:12.550Z,13.90
2018-12-26T11:41:41.127Z,11.97
2018-12-26T11:44:09.577Z,12.23
2018-12-26T11:46:37.983Z,11.83
2018-12-26T11:49:07.337Z,12.63
2018-12-26T11:51:35.750Z,6.50
2018-12-26T11:54:04.227Z,10.13
2018-12-26T11:56:32.679Z,8.63
2018-12-26T11:59:01.149Z,10.33
2018-12-26T12:01:29.563Z,14.20
2018-12-26T12:03:57.957Z,8.50
2018-12-26T12:06:26.902Z,9.65
2018-12-26T12:08:55.321Z,10.80
2018-12-26T12:11:23.758Z,5.70
2018-12-26T12:13:52.167Z,7.27
2018-12-26T12:16:20.601Z,11.00
2018-12-26T12:18:49.027Z,8.57
2018-12-26T12:21:17.489Z,8.77
2018-12-26T12:23:45.899Z,10.85
2018-12-26T12:26:14.319Z,10.83
2018-12-26T12:28:42.794Z,9.93
2018-12-26T12:31:11.452Z,13.45
2018-12-26T12:33:39.884Z,13.20
2018-12-26T12:36:08.376Z,11.50
2018-12-26T12:38:36.829Z,11.30
2018-12-26T12:41:05.311Z,9.07
2018-12-26T12:43:33.748Z,10.93
2018-12-26T12:46:02.365Z,11.77
2018-12-26T12:48:31.536Z,11.97
2018-12-26T12:50:59.935Z,10.13
2018-12-26T12:53:28.394Z,11.07
2018-12-26T12:55:56.904Z,9.23
2018-12-26T12:58:26.328Z,9.70
2018-12-26T13:00:54.768Z,9.43
2018-12-26T13:03:23.176Z,8.37
2018-12-26T13:05:54.613Z,7.87
2018-12-26T13:08:23.035Z,7.33
2018-12-26T13:10:51.455Z,8.43
2018-12-26T13:13:19.862Z,8.78
2018-12-26T13:15:48.302Z,8.07
2018-12-26T13:18:16.756Z,5.80
2018-12-26T13:20:45.428Z,5.93
2018-12-26T13:23:13.863Z,8.13
2018-12-26T13:25:42.308Z,9.20
2018-12-26T13:28:11.388Z,10.55
2018-12-26T13:30:39.797Z,6.80
2018-12-26T13:33:08.211Z,8.90
2018-12-26T13:35:40.750Z,5.63
2018-12-26T13:38:09.183Z,5.30
2018-12-26T13:40:37.609Z,5.90
2018-12-26T13:43:06.943Z,7.13
2018-12-26T13:45:35.387Z,6.30
2018-12-26T13:48:03.796Z,6.80
2018-12-26T13:50:32.211Z,8.88
2018-12-26T13:53:00.654Z,7.80
2018-12-26T13:55:29.070Z,6.63
2018-12-26T13:57:57.518Z,8.97
2018-12-26T14:00:26.314Z,7.80
2018-12-26T14:02:54.726Z,5.42
2018-12-26T14:05:26.138Z,4.67
2018-12-26T14:07:54.703Z,6.13
2018-12-26T14:10:23.208Z,5.13
2018-12-26T14:12:51.778Z,4.53
2018-12-26T14:15:20.430Z,4.20
2018-12-26T14:17:48.855Z,7.63
2018-12-26T14:20:17.296Z,5.42
2018-12-26T14:22:46.651Z,6.65
2018-12-26T14:25:15.089Z,7.03
2018-12-26T14:27:43.502Z,7.00
2018-12-26T14:30:11.959Z,6.93
2018-12-26T14:32:40.463Z,6.33
2018-12-26T14:35:08.879Z,6.17
2018-12-26T14:37:37.293Z,5.78
2018-12-26T14:40:06.482Z,9.95
2018-12-26T14:42:34.890Z,10.40
2018-12-26T14:45:03.726Z,7.17
2018-12-26T14:47:32.164Z,15.23
2018-12-26T14:50:01.494Z,6.30
2018-12-26T14:52:29.934Z,6.42
2018-12-26T14:54:58.340Z,6.70
2018-12-26T14:57:26.755Z,7.50
2018-12-26T14:59:55.178Z,5.97
2018-12-26T15:02:23.622Z,5.50
2018-12-26T15:04:52.302Z,7.08
2018-12-26T15:07:21.532Z,5.87
2018-12-26T15:09:49.959Z,7.20
2018-12-26T15:12:18.407Z,5.73
2018-12-26T15:14:46.829Z,14.10
2018-12-26T15:17:15.239Z,7.20
2018-12-26T15:19:43.687Z,9.60
2018-12-26T15:22:12.111Z,9.03
2018-12-26T15:24:40.995Z,9.15
2018-12-26T15:27:09.477Z,8.88
2018-12-26T15:29:38.102Z,8.50
2018-12-26T15:32:06.542Z,9.93
2018-12-26T15:34:35.963Z,7.40
2018-12-26T15:37:04.402Z,9.03
2018-12-26T15:39:32.839Z,7.23
2018-12-26T15:42:01.288Z,7.17
2018-12-26T15:44:29.717Z,7.90
2018-12-26T15:46:58.165Z,9.15
2018-12-26T15:49:26.646Z,7.97
2018-12-26T15:51:56.015Z,13.07
2018-12-26T15:54:24.471Z,5.80
2018-12-26T15:56:52.911Z,8.60
2018-12-26T15:59:21.344Z,8.93
2018-12-26T16:01:50.487Z,6.08
2018-12-26T16:04:18.923Z,6.03
2018-12-26T16:06:51.290Z,8.40
2018-12-26T16:09:19.691Z,7.30
2018-12-26T16:11:48.118Z,8.13
2018-12-26T16:14:16.560Z,6.60
2018-12-26T16:16:44.975Z,7.75
2018-12-26T16:19:13.392Z,7.43
2018-12-26T16:21:45.712Z,12.70
2018-12-26T16:24:14.191Z,8.90
2018-12-26T16:26:42.650Z,9.03
2018-12-26T16:29:11.430Z,10.78
2018-12-26T16:31:39.985Z,10.20
2018-12-26T16:34:08.451Z,7.73
2018-12-26T16:36:36.920Z,12.15
2018-12-26T16:39:06.302Z,9.08
2018-12-26T16:41:34.763Z,9.23
2018-12-26T16:44:03.170Z,10.68
2018-12-26T16:46:31.609Z,13.13
2018-12-26T16:49:00.023Z,10.23
2018-12-26T16:51:28.464Z,16.05
2018-12-26T16:53:56.929Z,10.68
2018-12-26T16:56:25.879Z,9.78
2018-12-26T16:58:54.296Z,8.98
2018-12-26T17:01:22.725Z,9.60
2018-12-26T17:03:51.113Z,10.53
2018-12-26T17:06:19.536Z,14.23
2018-12-26T17:08:48.005Z,14.70
2018-12-26T17:11:16.455Z,15.80
2018-12-26T17:13:45.855Z,14.85
2018-12-26T17:16:14.280Z,15.93
2018-12-26T17:18:42.723Z,16.63
2018-12-26T17:21:11.206Z,18.97
2018-12-26T17:23:39.650Z,20.57
2018-12-26T17:26:08.091Z,16.33
2018-12-26T17:28:36.511Z,17.07
2018-12-26T17:31:05.306Z,16.42
2018-12-26T17:33:33.759Z,16.63
2018-12-26T17:36:02.175Z,17.10
2018-12-26T17:38:30.644Z,19.17
2018-12-26T17:40:59.119Z,18.50
2018-12-26T17:43:27.577Z,16.30
2018-12-26T17:45:56.025Z,17.10
2018-12-26T17:48:24.449Z,20.10
2018-12-26T17:50:52.863Z,17.80
2018-12-26T17:53:30.010Z,20.07
2018-12-26T17:56:01.504Z,16.75
2018-12-26T17:58:35.687Z,19.00
2018-12-26T18:01:16.335Z,19.03
2018-12-26T18:03:45.143Z,18.30
2018-12-26T18:06:13.579Z,19.52
2018-12-26T18:08:42.034Z,17.40
2018-12-26T18:11:10.453Z,18.40
2018-12-26T18:13:38.872Z,20.00
2018-12-26T18:16:07.321Z,18.92
2018-12-26T18:18:35.760Z,21.47
2018-12-26T18:21:04.307Z,19.95
2018-12-26T18:23:32.723Z,18.77
2018-12-26T18:26:04.772Z,22.53
2018-12-26T18:28:33.271Z,18.42
2018-12-26T18:31:01.766Z,16.20
2018-12-26T18:33:30.209Z,20.70
2018-12-26T18:35:59.532Z,21.68
2018-12-26T18:38:27.986Z,21.37
2018-12-26T18:40:56.485Z,21.35
2018-12-26T18:43:25.274Z,19.40
2018-12-26T18:45:54.644Z,23.60
2018-12-26T18:48:23.047Z,19.62
2018-12-26T18:50:51.641Z,23.63
2018-12-26T18:53:20.323Z,24.20
2018-12-26T18:55:49.511Z,21.17
2018-12-26T18:58:17.982Z,23.45
2018-12-26T19:00:46.398Z,25.97
2018-12-26T19:03:14.869Z,23.33
2018-12-26T19:05:43.323Z,21.97
2018-12-26T19:08:11.771Z,23.53
2018-12-26T19:10:44.258Z,20.40
2018-12-26T19:13:12.689Z,21.70
2018-12-26T19:15:41.105Z,26.23
2018-12-26T19:18:10.225Z,25.37
2018-12-26T19:20:38.671Z,21.23
2018-12-26T19:23:07.146Z,32.90
2018-12-26T19:25:35.700Z,18.30
2018-12-26T19:28:05.145Z,25.60
2018-12-26T19:30:33.640Z,25.62
2018-12-26T19:33:02.109Z,29.30
2018-12-26T19:35:30.550Z,26.05
2018-12-26T19:37:59.089Z,25.90
2018-12-26T19:40:27.585Z,25.73
2018-12-26T19:42:56.064Z,26.00
2018-12-26T19:45:24.718Z,26.68
2018-12-26T19:47:53.522Z,26.80
2018-12-26T19:50:21.963Z,20.77
2018-12-26T19:52:50.530Z,26.80
2018-12-26T19:55:22.811Z,27.10
2018-12-26T19:57:51.387Z,24.03
2018-12-26T20:00:20.307Z,23.30
2018-12-26T20:02:48.750Z,21.93
2018-12-26T20:05:17.528Z,22.03
2018-12-26T20:07:46.057Z,28.57
2018-12-26T20:10:15.173Z,23.83
2018-12-26T20:12:43.599Z,22.40
2018-12-26T20:15:12.053Z,24.87
2018-12-26T20:17:41.003Z,25.83
2018-12-26T20:20:10.187Z,24.70
2018-12-26T20:22:38.655Z,20.57
2018-12-26T20:25:07.093Z,25.37
2018-12-26T20:27:35.512Z,20.73
2018-12-26T20:30:05.174Z,23.45
2018-12-26T20:32:33.615Z,22.83
2018-12-26T20:35:02.069Z,25.30
2018-12-26T20:37:30.628Z,26.07
2018-12-26T20:39:59.085Z,17.63
2018-12-26T20:42:27.518Z,23.30
2018-12-26T20:44:55.928Z,24.07
2018-12-26T20:47:25.161Z,25.20
2018-12-26T20:49:53.673Z,25.20
2018-12-26T20:52:22.107Z,20.27
2018-12-26T20:54:50.727Z,25.23
2018-12-26T20:57:19.517Z,21.85
2018-12-26T20:59:48.031Z,25.83
2018-12-26T21:02:16.442Z,22.73
2018-12-26T21:04:47.804Z,21.77
2018-12-26T21:07:16.241Z,24.47
2018-12-26T21:09:45.175Z,22.60
2018-12-26T21:12:13.628Z,23.85
2018-12-26T21:14:42.081Z,20.53
2018-12-26T21:17:10.544Z,20.97
2018-12-26T21:19:39.044Z,19.82
2018-12-26T21:22:07.465Z,24.70
2018-12-26T21:24:35.975Z,21.87
2018-12-26T21:27:04.577Z,20.62
2018-12-26T21:29:33.034Z,23.55
2018-12-26T21:32:01.549Z,21.55
2018-12-26T21:34:30.033Z,29.33
2018-12-26T21:36:59.512Z,23.33
2018-12-26T21:39:27.971Z,20.02
2018-12-26T21:41:56.378Z,24.60
2018-12-26T21:44:24.860Z,19.60
2018-12-26T21:46:54.277Z,21.00
2018-12-26T21:49:22.777Z,24.87
2018-12-26T21:51:51.284Z,23.60
2018-12-26T21:54:19.802Z,17.93
2018-12-26T21:56:49.202Z,21.05
2018-12-26T21:59:17.649Z,22.57
2018-12-26T22:01:46.080Z,22.10
2018-12-26T22:04:14.519Z,23.33
2018-12-26T22:06:42.969Z,21.42
2018-12-26T22:09:11.573Z,19.27
2018-12-26T22:11:40.055Z,22.53
2018-12-26T22:14:09.253Z,20.20
2018-12-26T22:16:37.698Z,22.53
2018-12-26T22:19:06.137Z,21.87
2018-12-26T22:21:34.648Z,25.13
2018-12-26T22:24:03.162Z,23.90
2018-12-26T22:26:31.636Z,26.90
2018-12-26T22:29:00.158Z,19.00
2018-12-26T22:31:28.784Z,19.52
2018-12-26T22:33:57.272Z,22.48
2018-12-26T22:36:25.716Z,23.65
2018-12-26T22:38:54.207Z,24.33
2018-12-26T22:41:22.678Z,26.10
2018-12-26T22:43:51.175Z,28.50
2018-12-26T22:46:21.655Z,27.50
2018-12-26T22:48:50.119Z,24.57
2018-12-26T22:51:18.889Z,20.82
2018-12-26T22:53:47.336Z,22.45
2018-12-26T22:56:15.795Z,24.00
2018-12-26T22:58:44.265Z,22.27
2018-12-26T23:01:12.811Z,22.20
2018-12-26T23:03:41.381Z,18.93
2018-12-26T23:06:09.805Z,21.50
2018-12-26T23:08:38.979Z,24.45
2018-12-26T23:11:07.402Z,24.60
2018-12-26T23:13:38.903Z,23.23
2018-12-26T23:16:07.471Z,24.15
2018-12-26T23:18:36.208Z,20.35
2018-12-26T23:21:04.804Z,21.23
2018-12-26T23:23:33.330Z,21.53
2018-12-26T23:26:01.792Z,21.13
2018-12-26T23:28:30.246Z,21.67
2018-12-26T23:30:58.979Z,22.76
2018-12-26T23:33:27.434Z,22.85
2018-12-26T23:35:55.859Z,22.32
2018-12-26T23:38:24.685Z,26.17
2018-12-26T23:40:54.086Z,19.67
2018-12-26T23:43:27.025Z,25.30
2018-12-26T23:45:55.599Z,24.37
2018-12-26T23:48:24.903Z,26.68
2018-12-26T23:50:53.335Z,23.40
2018-12-26T23:53:21.757Z,23.83
2018-12-26T23:55:50.332Z,22.42
2018-12-26T23:58:18.980Z,21.60
